地図

経路データ

SID SEASON NUMBER BASIN SUBBASIN NAME ISO_TIME NATURE LAT LON WMO_WIND WMO_PRES WMO_AGENCY TRACK_TYPE DIST2LAND LANDFALL IFLAG USA_AGENCY USA_ATCF_ID USA_LAT USA_LON USA_RECORD USA_STATUS USA_WIND USA_PRES USA_SSHS USA_R34_NE USA_R34_SE USA_R34_SW USA_R34_NW USA_R50_NE USA_R50_SE USA_R50_SW USA_R50_NW USA_R64_NE USA_R64_SE USA_R64_SW USA_R64_NW USA_POCI USA_ROCI USA_RMW USA_EYE TOKYO_LAT TOKYO_LON TOKYO_GRADE TOKYO_WIND TOKYO_PRES TOKYO_R50_DIR TOKYO_R50_LONG TOKYO_R50_SHORT TOKYO_R30_DIR TOKYO_R30_LONG TOKYO_R30_SHORT TOKYO_LAND CMA_LAT CMA_LON CMA_CAT CMA_WIND CMA_PRES HKO_LAT HKO_LON HKO_CAT HKO_WIND HKO_PRES NEWDELHI_LAT NEWDELHI_LON NEWDELHI_GRADE NEWDELHI_WIND NEWDELHI_PRES NEWDELHI_CI NEWDELHI_DP NEWDELHI_POCI REUNION_LAT REUNION_LON REUNION_TYPE REUNION_WIND REUNION_PRES REUNION_TNUM REUNION_CI REUNION_RMW REUNION_R34_NE REUNION_R34_SE REUNION_R34_SW REUNION_R34_NW REUNION_R50_NE REUNION_R50_SE REUNION_R50_SW REUNION_R50_NW REUNION_R64_NE REUNION_R64_SE REUNION_R64_SW REUNION_R64_NW BOM_LAT BOM_LON BOM_TYPE BOM_WIND BOM_PRES BOM_TNUM BOM_CI BOM_RMW BOM_R34_NE BOM_R34_SE BOM_R34_SW BOM_R34_NW BOM_R50_NE BOM_R50_SE BOM_R50_SW BOM_R50_NW BOM_R64_NE BOM_R64_SE BOM_R64_SW BOM_R64_NW BOM_ROCI BOM_POCI BOM_EYE BOM_POS_METHOD BOM_PRES_METHOD NADI_LAT NADI_LON NADI_CAT NADI_WIND NADI_PRES WELLINGTON_LAT WELLINGTON_LON WELLINGTON_WIND WELLINGTON_PRES DS824_LAT DS824_LON DS824_STAGE DS824_WIND DS824_PRES TD9636_LAT TD9636_LON TD9636_STAGE TD9636_WIND TD9636_PRES TD9635_LAT TD9635_LON TD9635_WIND TD9635_PRES TD9635_ROCI NEUMANN_LAT NEUMANN_LON NEUMANN_CLASS NEUMANN_WIND NEUMANN_PRES MLC_LAT MLC_LON MLC_CLASS MLC_WIND MLC_PRES USA_GUST BOM_GUST BOM_GUST_PER REUNION_GUST REUNION_GUST_PER USA_SEAHGT USA_SEARAD_NE USA_SEARAD_SE USA_SEARAD_SW USA_SEARAD_NW STORM_SPEED STORM_DIR
1997008S16093 1997 2 SI WA NOT_NAMED 1997-01-07 12:00:00 TS -15.7000 92.8000 20 1006 bom main 1671 1671 O_____O_____O_ jtwc_sh SH181997 -15.7000 92.8000 15 -1 -15.7000 92.8000 20 20 1006 1.00000 1.00000 1008 3 5 -15.7000 92.8000 TC 15 45 45 1 270
1997008S16093 1997 2 SI WA NOT_NAMED 1997-01-07 15:00:00 TS -15.7000 92.7375 main 1678 1678 P_____P_____P_ SH181997 -15.7000 92.7375 17 -1 -15.7000 92.7375 20 20 1005 1008 -15.7000 92.7375 TC 17 1 270
1997008S16093 1997 2 SI WA NOT_NAMED 1997-01-07 18:00:00 TS -15.7000 92.7000 20 1004 bom main 1678 1678 O_____O_____O_ jtwc_sh SH181997 -15.7000 92.7000 20 -1 -15.7000 92.7000 20 20 1004 1.00000 1.00000 1008 3 5 -15.7000 92.7000 TC 20 45 45 0 270
1997008S16093 1997 2 SI WA NOT_NAMED 1997-01-07 21:00:00 TS -15.7000 92.7000 main 1678 1678 P_____P_____P_ SH181997 -15.7000 92.7000 20 -1 -15.7000 92.7000 20 20 1005 1009 -15.7000 92.7000 TC 20 0 0
1997008S16093 1997 2 SI WA NOT_NAMED 1997-01-08 00:00:00 TS -15.7000 92.7000 20 1006 bom main 1678 1678 O_____O_____O_ jtwc_sh SH181997 -15.7000 92.7000 20 -1 -15.7000 92.7000 20 20 1006 1.00000 1.00000 1010 3 5 -15.7000 92.7000 TC 20 45 45 0 270
1997008S16093 1997 2 SI WA NOT_NAMED 1997-01-08 03:00:00 TS -15.7000 92.6575 main 1678 1678 P_____P_____P_ SH181997 -15.7000 92.6575 20 -1 -15.7000 92.6575 20 20 1006 1010 -15.7000 92.6575 TC 20 1 270
1997008S16093 1997 2 SI WA NOT_NAMED 1997-01-08 06:00:00 TS -15.7000 92.6000 20 1006 bom main 1685 1685 O_____O_____O_ jtwc_sh SH181997 -15.7000 92.6000 20 -1 -15.7000 92.6000 20 20 1006 1.00000 1.00000 1010 3 5 -15.7000 92.6000 TC 20 45 45 1 270
1997008S16093 1997 2 SI WA NOT_NAMED 1997-01-08 09:00:00 TS -15.7000 92.5500 main 1685 1685 P_____P_____P_ SH181997 -15.7000 92.5500 20 -1 -15.7000 92.5500 20 20 1006 1010 -15.7000 92.5500 TC 20 1 270
1997008S16093 1997 2 SI WA NOT_NAMED 1997-01-08 12:00:00 TS -15.7000 92.5000 20 1006 bom main 1693 1693 O_____O_____O_ jtwc_sh SH181997 -15.7000 92.5000 20 -1 -15.7000 92.5000 20 20 1006 1.50000 1.50000 1010 3 5 -15.7000 92.5000 TC 20 45 45 1 270
1997008S16093 1997 2 SI WA NOT_NAMED 1997-01-08 15:00:00 TS -15.7000 92.4500 main 1693 1693 P_____P_____P_ SH181997 -15.7000 92.4500 20 -1 -15.7000 92.4500 20 20 1006 1010 -15.7000 92.4500 TC 20 1 270
1997008S16093 1997 2 SI WA NOT_NAMED 1997-01-08 18:00:00 TS -15.7000 92.4000 20 1006 bom main 1700 1700 O_____O_____O_ jtwc_sh SH181997 -15.7000 92.4000 20 -1 -15.7000 92.4000 20 20 1006 1.50000 1.50000 1010 3 5 -15.7000 92.4000 TC 20 45 45 1 275
1997008S16093 1997 2 SI WA NOT_NAMED 1997-01-08 21:00:00 TS -15.6925 92.3550 main 1700 1700 P_____P_____P_ SH181997 -15.6925 92.3500 20 -1 -15.6925 92.3650 20 22 1005 1010 -15.6925 92.3500 TC 20 1 270
1997008S16093 1997 2 SI WA NOT_NAMED 1997-01-09 00:00:00 TS -15.7000 92.3000 25 1004 bom main 1707 1707 O_____O_____O_ jtwc_sh SH181997 -15.7000 92.3000 20 -1 -15.7000 92.3000 20 25 1004 2.00000 2.00000 1010 3 5 -15.7000 92.3000 TC 20 45 45 1 253
1997008S16093 1997 2 SI WA NOT_NAMED 1997-01-09 03:00:00 TS -15.7350 92.2142 main 1714 1714 P_____P_____P_ SH181997 -15.7350 92.2500 20 -1 -15.7350 92.1425 20 25 1004 1010 -15.7350 92.2500 TC 20 2 237
1997008S16093 1997 2 SI WA NOT_NAMED 1997-01-09 06:00:00 TS -15.8000 92.1333 25 1004 bom main 1729 1729 O_____O_____O_ jtwc_sh SH181997 -15.8000 92.2000 20 -1 -15.8000 92.0000 20 25 1004 2.00000 2.00000 1010 3 5 -15.8000 92.2000 TC 20 45 45 2 220
1997008S16093 1997 2 SI WA NOT_NAMED 1997-01-09 09:00:00 TS -15.8800 92.0850 main 1738 1738 P_____P_____P_ SH181997 -15.8775 92.1425 22 -1 -15.8850 91.9700 20 25 1004 1010 -15.8775 92.1425 TC 22 2 200
1997008S16093 1997 2 SI WA NOT_NAMED 1997-01-09 12:00:00 TS -16.0000 92.0667 25 1004 bom main 1746 1746 O_____O_____O_ jtwc_sh SH181997 -16.0000 92.1000 25 -1 -16.0000 92.0000 20 25 1004 2.00000 2.00000 1010 3 5 -16.0000 92.1000 TC 25 45 45 3 0
1997008S16093 1997 2 SI WA NOT_NAMED 1997-01-09 15:00:00 TS -16.1633 92.0733 main 1763 1763 P_____P_____P_ SH181997 -16.1850 92.0925 25 -1 -16.1200 92.0350 20 27 1003 1010 -16.1850 92.0925 TC 25 4 174
1997008S16093 1997 2 SI WA NOT_NAMED 1997-01-09 18:00:00 TS -16.3667 92.1000 30 1002 bom main 1779 1779 O_____O_____O_ jtwc_sh SH181997 -16.4000 92.1000 25 -1 -16.3000 92.1000 20 30 1002 2.50000 2.50000 1010 3 5 -16.4000 92.1000 TC 25 45 45 5 173
1997008S16093 1997 2 SI WA NOT_NAMED 1997-01-09 21:00:00 TS -16.6075 92.1333 main 1796 1796 P_____P_____P_ SH181997 -16.6075 92.1000 25 -1 -16.6075 92.1999 20 30 1002 1010 -16.6075 92.1000 TC 25 5 172
1997008S16093 1997 2 SI WA NOT_NAMED 1997-01-10 00:00:00 TS -16.8333 92.1667 30 1002 bom main 1803 1803 O_____O_____O_ jtwc_sh SH181997 -16.8000 92.1000 25 -1 -16.9000 92.3000 20 30 1002 2.50000 2.50000 1010 3 5 -16.8000 92.1000 TC 25 45 45 4 171
1997008S16093 1997 2 SI WA NOT_NAMED 1997-01-10 03:00:00 TS -16.9742 92.1859 main 1817 1817 P_____P_____P_ SH181997 -16.9575 92.1000 25 -1 -17.0075 92.3576 20 30 1002 1010 -16.9575 92.1000 TC 25 3 174
1997008S16093 1997 2 SI WA NOT_NAMED 1997-01-10 06:00:00 TS -17.1000 92.2000 30 1002 bom main 1823 1823 O_____O_____O_ jtwc_sh SH181997 -17.1000 92.1000 25 -1 -17.1000 92.4000 20 30 1002 2.50000 2.50000 1010 3 5 -17.1000 92.1000 TC 25 45 45 3 173
1997008S16093 1997 2 SI WA NOT_NAMED 1997-01-10 09:00:00 TS -17.2733 92.2192 main 1837 1837 P_____P_____P_ SH181997 -17.2425 92.1000 25 -1 -17.3350 92.4575 20 30 1002 1010 -17.2425 92.1000 TC 25 4 174
1997008S16093 1997 2 SI WA NOT_NAMED 1997-01-10 12:00:00 TS -17.4667 92.2333 30 1002 bom main 1851 1851 O_____O_____O_ jtwc_sh SH181997 -17.4000 92.1000 25 -1 -17.6000 92.5000 20 30 1002 2.50000 2.50000 1010 3 5 -17.4000 92.1000 TC 25 45 45 4 0
1997008S16093 1997 2 SI WA NOT_NAMED 1997-01-10 15:00:00 TS -17.6617 92.2383 main 1865 1865 P_____P_____P_ SH181997 -17.5925 92.1000 27 -1 -17.8000 92.5150 20 30 1001 1010 -17.5925 92.1000 TC 27 4 0
1997008S16093 1997 2 SI WA NOT_NAMED 1997-01-10 18:00:00 TS -17.8667 92.2333 30 1000 bom main 1879 1879 O_____O_____O_ jtwc_sh SH181997 -17.8000 92.1000 30 -1 -18.0000 92.5000 20 30 1000 2.50000 2.50000 1010 3 5 -17.8000 92.1000 TC 30 45 45 4 0
1997008S16093 1997 2 SI WA NOT_NAMED 1997-01-10 21:00:00 TS -18.0883 92.2317 main 1894 1894 P_____P_____P_ SH181997 -18.0000 92.1075 32 -1 -18.2650 92.4800 20 32 999 1011 -18.0000 92.1075 TC 32 4 185
1997008S16093 1997 2 SI WA NOT_NAMED 1997-01-11 00:00:00 TS -18.3000 92.2000 35 998 bom main 1908 1908 O_____O_____O_ jtwc_sh SH181997 -18.2000 92.1000 35 0 -18.5000 92.4000 30 35 998 3.00000 3.00000 19 59 59 59 59 99 1012 3 5 -18.2000 92.1000 TC 35 49 49 4 195
1997008S16093 1997 2 SI WA NOT_NAMED 1997-01-11 03:00:00 TS -18.4616 92.1324 main 1931 1931 P_____P_____P_ SH181997 -18.3850 92.0799 37 0 -18.6150 92.2374 30 37 997 19 59 59 59 59 99 1012 -18.3850 92.0799 TC 37 4 210
1997008S16093 1997 2 SI WA NOT_NAMED 1997-01-11 06:00:00 TS -18.6333 92.0000 40 996 bom main 1946 1946 O_____O_____O_ jtwc_sh SH181997 -18.6000 92.0000 40 0 -18.7000 92.0000 30 40 996 3.00000 3.00000 19 59 59 59 59 99 1012 3 5 -18.6000 92.0000 TC 40 55 55 5 218
1997008S16093 1997 2 SI WA NOT_NAMED 1997-01-11 09:00:00 TS -18.8608 91.8016 main 1984 1984 P_____P_____P_ SH181997 -18.8849 91.8449 42 0 -18.8125 91.7149 30 45 993 19 59 59 59 59 99 1012 -18.8849 91.8449 TC 42 7 222
1997008S16093 1997 2 SI WA NOT_NAMED 1997-01-11 12:00:00 TS -19.1333 91.5333 50 991 bom main 2023 2023 O_____O_____O_ jtwc_sh SH181997 -19.2000 91.6000 45 0 -19.0000 91.4000 30 50 991 3.50000 3.50000 19 59 59 59 59 30 30 30 30 99 1012 3 5 -19.2000 91.6000 TC 45 69 69 8 224
1997008S16093 1997 2 SI WA NOT_NAMED 1997-01-11 15:00:00 TS -19.4325 91.2224 main 2068 2068 P_____P_____P_ SH181997 -19.4924 91.2873 45 0 -19.3125 91.0926 30 50 991 19 59 69 69 59 30 30 30 30 109 1012 -19.4924 91.2873 TC 45 9 225
1997008S16093 1997 2 SI WA NOT_NAMED 1997-01-11 18:00:00 TS -19.7667 90.8667 50 992 bom main 2121 2121 O_____O_____O_ jtwc_sh SH181997 -19.8000 90.9000 45 0 -19.7000 90.8000 30 50 992 3.50000 3.50000 19 59 79 79 59 30 30 30 30 119 1012 3 5 -19.8000 90.9000 TC 45 69 69 10 224
1997008S16093 1997 2 SI WA NOT_NAMED 1997-01-11 21:00:00 TS -20.1307 90.5007 main 2175 2175 P_____P_____P_ SH181997 -20.1499 90.4725 45 0 -20.0924 90.5572 30 50 992 19 59 79 79 59 30 30 30 30 119 1012 -20.1499 90.4725 TC 45 10 224
1997008S16093 1997 2 SI WA NOT_NAMED 1997-01-12 00:00:00 TS -20.5000 90.1000 50 992 bom main 2236 2236 O_____O_____O_ jtwc_sh SH181997 -20.5000 90.0000 45 0 -20.5000 90.3000 30 50 992 3.50000 3.50000 19 59 79 79 59 30 30 30 30 119 1012 3 5 -20.5000 90.0000 TC 45 69 69 10 228
1997008S16093 1997 2 SI MM NOT_NAMED 1997-01-12 03:00:00 TS -20.8356 89.6772 main 2289 2289 P_____P_____P_ SH181997 -20.7999 89.5072 45 0 -20.9071 90.0171 30 50 992 19 59 79 79 59 30 30 119 1012 -20.7999 89.5072 TC 45 11 232
1997008S16093 1997 2 SI MM NOT_NAMED 1997-01-12 06:00:00 TS -21.1667 89.2000 main 2358 2358 O_____O_____O_ jtwc_sh SH181997 -21.1000 89.0000 45 0 -21.3000 89.6000 30 50 992 3.00000 3.50000 19 59 79 79 59 30 30 119 1012 3 5 -21.1000 89.0000 TC 45 69 69 12 235
1997008S16093 1997 2 SI MM NOT_NAMED 1997-01-12 09:00:00 TS -21.5041 88.6605 main 2419 2419 P_____P_____P_ SH181997 -21.4272 88.5145 42 0 -21.6577 88.9524 30 45 994 24 84 84 134 1012 -21.4272 88.5145 TC 42 13 236
1997008S16093 1997 2 SI MM NOT_NAMED 1997-01-12 12:00:00 TS -21.8667 88.0667 main 2495 2495 O_____O_____O_ jtwc_sh SH181997 -21.8000 88.0000 40 0 -22.0000 88.2000 21 40 996 2.50000 3.00000 30 90 90 150 1012 3 5 -21.8000 88.0000 TC 40 55 55 14 236
1997008S16093 1997 2 SI MM NOT_NAMED 1997-01-12 15:00:00 TS -22.2683 87.4381 main 2579 2579 P_____P_____P_ SH181997 -22.2349 87.4149 37 0 -22.3349 87.4846 21 37 997 30 90 90 150 1012 -22.2349 87.4149 TC 37 14 235
1997008S16093 1997 2 SI MM NOT_NAMED 1997-01-12 18:00:00 TS -22.7000 86.8000 main 2655 2655 O_____O_____O_ jtwc_sh SH181997 -22.7000 86.8000 35 0 -22.7000 86.8000 21 35 998 2.50000 2.50000 30 90 90 150 1012 3 5 -22.7000 86.8000 TC 35 49 49 14 233
1997008S16093 1997 2 SI MM NOT_NAMED 1997-01-12 21:00:00 TS -23.1370 86.2093 main 2731 2731 P_____P_____P_ SH181997 -23.1421 86.2143 35 0 -23.1269 86.1994 21 32 999 1011 -23.1421 86.2143 TC 35 14 231
1997008S16093 1997 2 SI MM NOT_NAMED 1997-01-13 00:00:00 TS -23.6000 85.6000 main 2801 2801 O_____O_____O_ jtwc_sh SH181997 -23.6000 85.6000 35 0 -23.6000 85.6000 20 30 1000 2.00000 2.50000 1010 3 5 -23.6000 85.6000 TC 35 45 45 15 231
1997008S16093 1997 2 SI MM NOT_NAMED 1997-01-13 03:00:00 TS -24.0999 84.9148 main 2816 2749 P_____P_____P_ SH181997 -24.0999 84.9148 35 0 -24.0999 84.9148 20 30 1000 1010 -24.0999 84.9148 TC 35 16 232
1997008S16093 1997 2 SI MM NOT_NAMED 1997-01-13 06:00:00 TS -24.6000 84.2000 main 2749 2683 O_____O_____O_ jtwc_sh SH181997 -24.6000 84.2000 35 0 -24.6000 84.2000 20 30 1000 1.50000 2.00000 1010 3 5 -24.6000 84.2000 TC 35 45 45 16 233
1997008S16093 1997 2 SI MM NOT_NAMED 1997-01-13 09:00:00 TS -25.0825 83.4701 main 2684 2620 P_____P_____P_ SH181997 -25.0801 83.4626 35 0 -25.0874 83.4850 20 30 1001 1010 -25.0801 83.4626 TC 35 16 235
1997008S16093 1997 2 SI MM NOT_NAMED 1997-01-13 12:00:00 TS -25.5000 82.8000 main 2620 2575 O_____O_____O_ jtwc_sh SH181997 -25.5000 82.8000 35 0 -25.5000 82.8000 20 30 1002 2.00000 2.00000 1010 3 5 -25.5000 82.8000 TC 35 45 45 13 236
1997008S16093 1997 2 SI MM NOT_NAMED 1997-01-13 15:00:00 TS -25.8142 82.2600 main 2575 2529 P_____P_____P_ SH181997 -25.8274 82.3000 32 -1 -25.7878 82.1801 20 30 1002 1010 -25.8274 82.3000 TC 32 11 238
1997008S16093 1997 2 SI MM NOT_NAMED 1997-01-13 18:00:00 TS -26.0667 81.8000 main 2531 O_____O_____O_ jtwc_sh SH181997 -26.1000 81.9000 30 -1 -26.0000 81.6000 20 30 1002 1.50000 2.00000 1010 3 5 -26.1000 81.9000 TC 30 45 45 10 239

IBTrACS Databaseについて

本データベースは、米国NOAAが公開する1842年以降の世界の熱帯低気圧のベストトラックデータアーカイブInternational Best Track Archive for Climate Stewardship (IBTrACS)を、ウェブで閲覧しやすい形式に変換したものです。

最終更新日:2021-12-08